createdAt,value
2019-04-23T00:01:59.758Z,25.70
2019-04-23T00:04:23.993Z,25.70
2019-04-23T00:07:10.172Z,25.80
2019-04-23T00:09:38.988Z,25.80
2019-04-23T00:12:12.918Z,25.80
2019-04-23T00:14:57.744Z,25.90
2019-04-23T00:17:23.196Z,25.90
2019-04-23T00:19:56.718Z,26.00
2019-04-23T00:22:34.787Z,26.00
2019-04-23T00:27:45.801Z,26.20
2019-04-23T00:30:12.947Z,26.20
2019-04-23T00:32:46.214Z,26.30
2019-04-23T00:35:23.748Z,26.40
2019-04-23T00:37:55.062Z,26.50
2019-04-23T00:40:35.416Z,26.60
2019-04-23T00:43:05.242Z,26.60
2019-04-23T00:45:44.515Z,26.70
2019-04-23T00:48:18.311Z,26.80
2019-04-23T00:50:49.185Z,26.80
2019-04-23T00:53:34.212Z,26.90
2019-04-23T00:56:07.258Z,27.00
2019-04-23T00:58:36.657Z,27.10
2019-04-23T01:01:02.506Z,27.20
2019-04-23T01:03:29.424Z,27.30
2019-04-23T01:06:18.308Z,27.40
2019-04-23T01:08:47.368Z,27.50
2019-04-23T01:16:25.136Z,27.80
2019-04-23T01:19:28.481Z,27.90
2019-04-23T01:21:30.617Z,27.90
2019-04-23T01:24:09.324Z,27.90
2019-04-23T01:27:16.734Z,28.00
2019-04-23T01:29:48.055Z,28.00
2019-04-23T01:32:16.071Z,28.10
2019-04-23T01:34:49.620Z,28.10
2019-04-23T01:37:25.645Z,28.10
2019-04-23T01:39:57.625Z,28.20
2019-04-23T01:42:39.590Z,28.20
2019-04-23T01:45:12.012Z,28.20
2019-04-23T01:47:39.012Z,28.20
2019-04-23T01:50:14.377Z,28.30
2019-04-23T01:55:21.382Z,28.40
2019-04-23T02:00:34.071Z,28.50
2019-04-23T02:03:03.587Z,28.60
2019-04-23T02:08:08.463Z,28.70
2019-04-23T02:10:50.992Z,28.80
2019-04-23T02:13:25.382Z,28.90
2019-04-23T02:15:52.844Z,28.90
2019-04-23T02:18:31.393Z,29.00
2019-04-23T02:21:00.944Z,29.00
2019-04-23T02:23:41.373Z,29.00
2019-04-23T02:29:29.954Z,29.10
2019-04-23T02:31:54.936Z,29.20
2019-04-23T02:39:32.980Z,29.10
2019-04-23T02:42:07.324Z,29.10
2019-04-23T02:52:16.080Z,29.20
2019-04-23T02:54:51.018Z,29.20
2019-04-23T03:05:22.433Z,29.20
2019-04-23T03:08:09.664Z,29.10
2019-04-23T03:10:31.312Z,29.10
2019-04-23T03:13:16.097Z,29.10
2019-04-23T03:18:42.062Z,29.10
2019-04-23T03:21:05.813Z,29.20
2019-04-23T03:26:19.931Z,29.40
2019-04-23T03:38:48.396Z,29.90
2019-04-23T03:43:51.999Z,30.10
2019-04-23T03:46:41.659Z,30.20
2019-04-23T03:49:07.654Z,30.30
2019-04-23T03:51:43.305Z,30.30
2019-04-23T03:57:03.325Z,30.40
2019-04-23T04:02:15.503Z,30.50
2019-04-23T04:04:32.792Z,30.60
2019-04-23T04:09:38.580Z,30.70
2019-04-23T04:12:15.893Z,30.70
2019-04-23T04:14:46.305Z,30.80
2019-04-23T04:23:00.062Z,30.90
2019-04-23T04:25:26.893Z,30.90
2019-04-23T04:30:31.930Z,31.00
2019-04-23T04:33:06.901Z,31.10
2019-04-23T04:35:48.661Z,31.20
2019-04-23T04:40:45.691Z,31.20
2019-04-23T04:46:04.925Z,31.30
2019-04-23T04:48:23.191Z,31.30
2019-04-23T04:51:08.485Z,31.50
2019-04-23T04:59:00.277Z,31.70
2019-04-23T05:01:22.414Z,31.70
2019-04-23T05:03:45.102Z,31.80
2019-04-23T05:06:38.946Z,31.90
2019-04-23T05:09:00.782Z,32.00
2019-04-23T05:14:05.879Z,32.20
2019-04-23T05:16:46.723Z,32.20
2019-04-23T05:19:35.313Z,32.30
2019-04-23T05:21:54.969Z,32.40
2019-04-23T05:27:01.108Z,32.70
2019-04-23T05:29:31.237Z,32.90
2019-04-23T05:31:58.125Z,33.10
2019-04-23T05:37:14.692Z,33.40
2019-04-23T05:39:49.278Z,33.60
2019-04-23T05:42:19.791Z,33.70
2019-04-23T05:44:54.301Z,33.80
2019-04-23T05:47:29.285Z,33.80
2019-04-23T05:50:00.872Z,33.70
2019-04-23T05:52:38.064Z,33.70
2019-04-23T05:55:12.045Z,33.80
2019-04-23T06:00:21.292Z,33.90
2019-04-23T06:02:58.831Z,34.10
2019-04-23T06:05:25.201Z,34.10
2019-04-23T06:08:21.605Z,34.10
2019-04-23T06:10:36.297Z,34.10
2019-04-23T06:13:04.522Z,34.20
2019-04-23T06:18:28.143Z,34.50
2019-04-23T06:23:30.458Z,34.70
2019-04-23T06:26:10.089Z,34.80
2019-04-23T06:28:31.644Z,34.70
2019-04-23T06:31:07.858Z,34.70
2019-04-23T06:33:40.118Z,34.70
2019-04-23T06:36:13.929Z,34.60
2019-04-23T06:41:34.892Z,34.60
2019-04-23T06:44:08.821Z,34.60
2019-04-23T06:46:39.467Z,34.70
2019-04-23T06:49:09.453Z,34.70
2019-04-23T06:52:02.699Z,34.90
2019-04-23T06:57:08.801Z,35.00
2019-04-23T07:02:11.807Z,35.20
2019-04-23T07:04:50.280Z,35.20
2019-04-23T07:07:37.958Z,35.30
2019-04-23T07:09:50.046Z,35.20
2019-04-23T07:15:04.456Z,35.30
2019-04-23T07:17:30.895Z,35.30
2019-04-23T07:20:08.319Z,35.40
2019-04-23T07:22:42.894Z,35.30
2019-04-23T07:27:47.378Z,35.40
2019-04-23T07:30:38.367Z,35.50
2019-04-23T07:32:58.725Z,35.50
2019-04-23T07:35:33.257Z,35.50
2019-04-23T07:38:13.253Z,35.50
2019-04-23T07:40:43.024Z,35.50
2019-04-23T07:43:39.756Z,35.50
2019-04-23T07:46:02.256Z,35.50
2019-04-23T07:48:41.439Z,35.50
2019-04-23T07:50:59.884Z,35.50
2019-04-23T07:53:39.895Z,35.60
2019-04-23T07:56:15.847Z,35.50
2019-04-23T07:59:08.848Z,35.50
2019-04-23T08:01:47.128Z,35.40
2019-04-23T08:04:16.517Z,35.30
2019-04-23T08:06:46.348Z,35.30
2019-04-23T08:09:27.784Z,35.20
2019-04-23T08:11:56.159Z,35.10
2019-04-23T08:14:32.911Z,35.10
2019-04-23T08:17:04.059Z,35.00
2019-04-23T08:19:49.842Z,35.00
2019-04-23T08:25:03.550Z,35.00
2019-04-23T08:27:27.986Z,35.00
2019-04-23T08:30:00.509Z,35.00
2019-04-23T08:32:38.596Z,35.00
2019-04-23T08:35:10.915Z,35.00
2019-04-23T08:40:25.682Z,35.00
2019-04-23T08:43:00.903Z,35.20
2019-04-23T08:48:07.913Z,35.40
2019-04-23T08:50:42.547Z,35.40
2019-04-23T08:53:26.295Z,35.50
2019-04-23T08:55:49.343Z,35.50
2019-04-23T08:58:28.842Z,35.50
2019-04-23T09:03:31.375Z,35.40
2019-04-23T09:06:06.315Z,35.40
2019-04-23T09:13:53.558Z,35.20
2019-04-23T09:16:22.319Z,35.20
2019-04-23T09:18:56.290Z,35.20
2019-04-23T09:21:27.772Z,35.20
2019-04-23T09:24:00.706Z,35.30
2019-04-23T09:26:33.189Z,35.40
2019-04-23T09:29:13.239Z,35.40
2019-04-23T09:32:07.359Z,35.60
2019-04-23T09:34:16.659Z,35.60
2019-04-23T09:37:00.345Z,35.70
2019-04-23T09:42:09.211Z,35.80
2019-04-23T09:44:57.092Z,35.90
2019-04-23T09:47:19.514Z,35.90
2019-04-23T09:49:55.529Z,35.90
2019-04-23T09:52:30.916Z,35.90
2019-04-23T09:57:55.501Z,35.90
2019-04-23T10:00:36.152Z,35.90
2019-04-23T10:02:51.557Z,35.90
2019-04-23T10:05:22.462Z,35.80
2019-04-23T10:07:54.415Z,35.80
2019-04-23T10:10:20.727Z,35.70
2019-04-23T10:12:53.883Z,35.60
2019-04-23T10:15:34.311Z,35.60
2019-04-23T10:18:00.527Z,35.50
2019-04-23T10:20:34.269Z,35.40
2019-04-23T10:23:06.356Z,35.40
2019-04-23T10:25:38.545Z,35.40
2019-04-23T10:28:13.234Z,35.20
2019-04-23T10:30:46.852Z,35.10
2019-04-23T10:33:19.346Z,35.00
2019-04-23T10:35:59.971Z,34.90
2019-04-23T10:38:27.954Z,34.90
2019-04-23T10:41:02.161Z,34.80
2019-04-23T10:43:38.743Z,34.70
2019-04-23T10:46:49.260Z,34.70
2019-04-23T10:54:53.908Z,34.70
2019-04-23T10:57:14.803Z,34.70
2019-04-23T10:59:44.670Z,34.60
2019-04-23T11:02:35.144Z,34.60
2019-04-23T11:10:05.568Z,34.40
2019-04-23T11:12:42.068Z,34.30
2019-04-23T11:17:47.932Z,34.10
2019-04-23T11:28:11.787Z,33.60
2019-04-23T11:30:41.627Z,33.50
2019-04-23T11:33:16.162Z,33.40
2019-04-23T11:36:35.722Z,33.30
2019-04-23T11:41:05.507Z,33.20
2019-04-23T11:43:37.599Z,33.00
2019-04-23T11:46:19.388Z,33.00
2019-04-23T11:51:46.056Z,32.80
2019-04-23T11:53:54.649Z,32.80
2019-04-23T11:59:25.042Z,32.70
2019-04-23T12:01:52.777Z,32.60
2019-04-23T12:07:14.336Z,32.50
2019-04-23T12:09:34.812Z,32.50
2019-04-23T12:12:00.312Z,32.40
2019-04-23T12:14:37.497Z,32.40
2019-04-23T12:22:17.957Z,32.30
2019-04-23T12:30:20.524Z,32.10
2019-04-23T12:35:19.582Z,32.10
2019-04-23T12:37:53.852Z,32.10
2019-04-23T12:45:47.035Z,32.10
2019-04-23T12:48:27.883Z,32.00
2019-04-23T12:56:07.067Z,32.00
2019-04-23T12:58:29.306Z,31.90
2019-04-23T13:00:58.718Z,31.90
2019-04-23T13:03:39.209Z,31.80
2019-04-23T13:06:09.556Z,31.80
2019-04-23T13:08:53.763Z,31.80
2019-04-23T13:14:00.474Z,31.70
2019-04-23T13:16:37.624Z,31.70
2019-04-23T13:19:14.400Z,31.60
2019-04-23T13:24:15.681Z,31.50
2019-04-23T13:26:47.232Z,31.50
2019-04-23T13:29:28.702Z,31.50
2019-04-23T13:31:59.233Z,31.50
2019-04-23T13:34:40.719Z,31.40
2019-04-23T13:37:25.702Z,31.40
2019-04-23T13:39:44.055Z,31.30
2019-04-23T13:42:33.700Z,31.30
2019-04-23T13:44:55.943Z,31.20
2019-04-23T13:47:43.338Z,31.20
2019-04-23T13:50:13.094Z,31.20
2019-04-23T13:58:03.128Z,31.10
2019-04-23T14:00:28.701Z,31.10
2019-04-23T14:02:49.235Z,31.00
2019-04-23T14:05:31.636Z,31.10
2019-04-23T14:08:33.588Z,31.00
2019-04-23T14:10:46.716Z,31.00
2019-04-23T14:15:54.026Z,30.90
2019-04-23T14:20:59.038Z,30.90
2019-04-23T14:23:52.013Z,30.90
2019-04-23T14:31:13.440Z,30.80
2019-04-23T14:33:52.662Z,30.70
2019-04-23T14:36:39.625Z,30.80
2019-04-23T14:39:04.310Z,30.70
2019-04-23T14:41:42.498Z,30.70
2019-04-23T14:44:08.179Z,30.70
2019-04-23T14:49:11.936Z,30.70
2019-04-23T14:54:34.292Z,30.60
2019-04-23T14:57:09.852Z,30.60
2019-04-23T14:59:19.858Z,30.50
2019-04-23T15:02:09.689Z,30.40
2019-04-23T15:04:43.761Z,30.30
2019-04-23T15:07:16.967Z,30.30
2019-04-23T15:09:59.259Z,30.20
2019-04-23T15:12:22.668Z,30.20
2019-04-23T15:15:05.734Z,30.20
2019-04-23T15:17:30.493Z,30.10
2019-04-23T15:20:03.018Z,30.10
2019-04-23T15:28:05.216Z,30.10
2019-04-23T15:30:18.974Z,30.00
2019-04-23T15:33:03.918Z,30.00
2019-04-23T15:38:18.500Z,30.00
2019-04-23T15:40:34.416Z,30.00
2019-04-23T15:43:22.893Z,30.00
2019-04-23T15:45:44.754Z,30.00
2019-04-23T15:48:26.482Z,30.00
2019-04-23T15:50:51.596Z,30.00
2019-04-23T15:53:18.092Z,30.00
2019-04-23T15:56:13.417Z,30.00
2019-04-23T15:58:56.194Z,30.00
2019-04-23T16:01:21.856Z,30.10
2019-04-23T16:03:24.568Z,30.00
2019-04-23T16:05:57.380Z,30.00
2019-04-23T16:14:17.357Z,30.00
2019-04-23T16:16:51.377Z,30.00
2019-04-23T16:21:59.091Z,30.00
2019-04-23T16:25:02.727Z,30.00
2019-04-23T16:27:01.541Z,29.90
2019-04-23T16:32:10.053Z,29.90
2019-04-23T16:34:33.731Z,29.90
2019-04-23T16:37:15.364Z,29.90
2019-04-23T16:39:58.099Z,29.90
2019-04-23T16:42:26.715Z,29.90
2019-04-23T16:45:08.538Z,29.80
2019-04-23T16:47:29.277Z,29.80
2019-04-23T16:50:13.122Z,29.80
2019-04-23T16:52:34.483Z,29.70
2019-04-23T16:55:22.370Z,29.70
2019-04-23T17:01:02.576Z,29.50
2019-04-23T17:03:06.896Z,29.50
2019-04-23T17:05:33.781Z,29.40
2019-04-23T17:08:33.786Z,29.40
2019-04-23T17:10:42.909Z,29.40
2019-04-23T17:13:16.220Z,29.30
2019-04-23T17:18:24.556Z,29.30
2019-04-23T17:20:56.309Z,29.20
2019-04-23T17:28:38.933Z,29.10
2019-04-23T17:31:32.852Z,29.10
2019-04-23T17:33:51.586Z,29.10
2019-04-23T17:36:24.654Z,29.10
2019-04-23T17:39:04.000Z,29.10
2019-04-23T17:41:38.818Z,29.10
2019-04-23T17:44:18.442Z,29.10
2019-04-23T17:46:44.612Z,29.10
2019-04-23T17:49:15.388Z,29.10
2019-04-23T17:51:48.814Z,29.10
2019-04-23T17:54:24.597Z,29.10
2019-04-23T17:57:07.534Z,29.00
2019-04-23T17:59:38.291Z,29.00
2019-04-23T18:02:48.252Z,29.00
2019-04-23T18:04:56.405Z,29.00
2019-04-23T18:07:36.067Z,29.00
2019-04-23T18:10:06.435Z,29.00
2019-04-23T18:12:40.518Z,29.00
2019-04-23T18:15:00.834Z,29.00
2019-04-23T18:17:37.800Z,29.00
2019-04-23T18:20:14.929Z,29.00
2019-04-23T18:25:38.730Z,28.90
2019-04-23T18:30:25.965Z,28.80
2019-04-23T18:33:49.280Z,28.80
2019-04-23T18:43:26.862Z,28.60
2019-04-23T18:51:15.335Z,28.40
2019-04-23T18:58:54.704Z,28.40
2019-04-23T19:01:36.542Z,28.40
2019-04-23T19:06:45.402Z,28.30
2019-04-23T19:09:32.323Z,28.30
2019-04-23T19:12:26.676Z,28.30
2019-04-23T19:14:56.298Z,28.30
2019-04-23T19:19:48.386Z,28.30
2019-04-23T19:24:59.440Z,28.20
2019-04-23T19:30:16.080Z,28.10
2019-04-23T19:32:43.503Z,28.10
2019-04-23T19:35:35.136Z,28.00
2019-04-23T19:37:56.105Z,28.00
2019-04-23T19:40:24.413Z,28.10
2019-04-23T19:42:58.850Z,28.10
2019-04-23T19:45:28.362Z,28.10
2019-04-23T19:50:40.646Z,28.10
2019-04-23T19:53:32.178Z,28.00
2019-04-23T19:56:00.119Z,28.10
2019-04-23T19:58:25.986Z,28.00
2019-04-23T20:06:00.477Z,28.00
2019-04-23T20:11:09.239Z,27.90
2019-04-23T20:16:19.187Z,27.90
2019-04-23T20:18:50.849Z,27.90
2019-04-23T20:21:23.247Z,27.90
2019-04-23T20:24:23.696Z,27.90
2019-04-23T20:26:21.709Z,27.90
2019-04-23T20:29:35.213Z,27.90
2019-04-23T20:33:22.278Z,27.90
2019-04-23T20:36:51.448Z,27.90
2019-04-23T20:47:15.306Z,27.80
2019-04-23T20:52:13.749Z,27.80
2019-04-23T20:55:00.034Z,27.80
2019-04-23T20:57:42.951Z,27.80
2019-04-23T21:02:52.460Z,27.80
2019-04-23T21:07:54.180Z,27.70
2019-04-23T21:13:08.367Z,27.70
2019-04-23T21:15:27.970Z,27.70
2019-04-23T21:18:06.214Z,27.70
2019-04-23T21:23:09.288Z,27.70
2019-04-23T21:25:44.212Z,27.60
2019-04-23T21:28:17.206Z,27.60
2019-04-23T21:31:00.851Z,27.60
2019-04-23T21:33:26.560Z,27.60
2019-04-23T21:38:56.287Z,27.60
2019-04-23T21:44:08.584Z,27.60
2019-04-23T21:46:41.707Z,27.60
2019-04-23T21:49:08.690Z,27.60
2019-04-23T21:53:55.057Z,27.60
2019-04-23T21:56:37.148Z,27.60
2019-04-23T22:04:24.751Z,27.60
2019-04-23T22:06:53.004Z,27.60
2019-04-23T22:09:35.279Z,27.60
2019-04-23T22:14:40.138Z,27.60
2019-04-23T22:19:58.575Z,27.60
2019-04-23T22:22:20.435Z,27.60
2019-04-23T22:24:52.804Z,27.60
2019-04-23T22:27:28.324Z,27.60
2019-04-23T22:30:02.071Z,27.60
2019-04-23T22:35:07.899Z,27.50
2019-04-23T22:37:53.959Z,27.50
2019-04-23T22:40:16.592Z,27.50
2019-04-23T22:43:08.972Z,27.40
2019-04-23T22:45:27.523Z,27.40
2019-04-23T22:50:44.229Z,27.40
2019-04-23T22:55:55.483Z,27.40
2019-04-23T22:58:11.259Z,27.40
2019-04-23T23:00:55.291Z,27.40
2019-04-23T23:03:29.361Z,27.40
2019-04-23T23:06:17.482Z,27.40
2019-04-23T23:11:08.779Z,27.40
2019-04-23T23:13:52.242Z,27.40
2019-04-23T23:16:14.523Z,27.40
2019-04-23T23:18:53.835Z,27.40
2019-04-23T23:21:19.901Z,27.40
2019-04-23T23:23:59.415Z,27.40
2019-04-23T23:26:35.532Z,27.30
2019-04-23T23:29:01.098Z,27.40
2019-04-23T23:31:50.185Z,27.40
2019-04-23T23:39:22.887Z,27.40
2019-04-23T23:41:56.712Z,27.40
2019-04-23T23:47:10.577Z,27.50
2019-04-23T23:52:03.551Z,27.50
2019-04-23T23:54:45.351Z,27.60
2019-04-23T23:57:18.235Z,27.60
